Time;durP1;ratioP1;P1;durP2;ratioP2;P2;SDS_P1;SDS_P2;PMS_P1;PMS_P2;Temp;Humidity;BMP_temperature;BMP_pressure;BME280_temperature;BME280_humidity;BME280_pressure;Samples;Min_cycle;Max_cycle;Signal;HPM_P1;HPM_P2
2023/07/12 00:01:19;;;;;;;4.28;2.42;;;19.70;99.90;;;;;;5092059;28;20376;-65
2023/07/12 00:03:45;;;;;;;4.80;2.13;;;19.70;99.90;;;;;;5073863;28;20052;-66
2023/07/12 00:06:18;;;;;;;3.22;2.00;;;19.70;99.90;;;;;;5057446;28;20056;-65
2023/07/12 00:08:47;;;;;;;4.38;2.55;;;19.70;99.90;;;;;;5092256;28;20048;-66
2023/07/12 00:11:20;;;;;;;4.30;2.63;;;19.70;99.90;;;;;;5092283;28;20043;-65
2023/07/12 00:13:47;;;;;;;3.92;1.98;;;19.60;99.90;;;;;;5091854;28;20048;-66
2023/07/12 00:16:33;;;;;;;2.97;1.88;;;19.70;99.90;;;;;;5074026;28;20052;-65
2023/07/12 00:19:00;;;;;;;3.30;2.00;;;19.60;99.90;;;;;;5074859;28;20048;-65
2023/07/12 00:21:28;;;;;;;4.07;2.20;;;19.60;99.90;;;;;;5073922;28;20052;-65
2023/07/12 00:23:57;;;;;;;3.10;2.25;;;19.60;99.90;;;;;;5074099;28;20528;-64
2023/07/12 00:26:28;;;;;;;4.10;2.13;;;19.60;99.90;;;;;;5075268;28;20051;-65
2023/07/12 00:28:56;;;;;;;3.97;2.38;;;19.60;99.90;;;;;;5078226;28;20054;-65
2023/07/12 00:31:23;;;;;;;3.38;2.70;;;19.50;99.90;;;;;;5078321;28;20040;-66
2023/07/12 00:33:50;;;;;;;3.97;2.40;;;19.60;99.90;;;;;;5078007;28;20492;-65
2023/07/12 00:36:20;;;;;;;4.00;2.30;;;19.60;99.90;;;;;;5059490;28;20061;-65
2023/07/12 00:38:52;;;;;;;4.68;2.30;;;19.60;99.90;;;;;;5055312;28;20460;-65
2023/07/12 00:41:58;;;;;;;4.75;2.47;;;19.70;99.90;;;;;;5041571;28;20090;-65
2023/07/12 00:44:55;;;;;;;4.63;2.22;;;19.70;99.90;;;;;;5032277;28;20049;-65
2023/07/12 00:47:21;;;;;;;4.85;2.30;;;19.60;99.90;;;;;;5036506;28;20057;-66
2023/07/12 00:49:48;;;;;;;4.05;2.20;;;19.70;99.90;;;;;;5055507;28;20049;-64
2023/07/12 00:52:17;;;;;;;5.45;2.13;;;19.60;99.90;;;;;;5062929;28;20044;-65
2023/07/12 00:55:00;;;;;;;4.80;2.33;;;19.60;99.90;;;;;;5075867;28;20368;-65
2023/07/12 00:57:33;;;;;;;3.05;2.33;;;19.60;99.90;;;;;;5057718;28;20048;-65
2023/07/12 01:00:12;;;;;;;3.53;2.45;;;19.60;99.90;;;;;;5075466;28;20109;-65
2023/07/12 01:02:45;;;;;;;4.40;2.53;;;19.70;99.90;;;;;;5037726;28;20059;-64
2023/07/12 01:05:13;;;;;;;3.63;2.30;;;19.60;99.90;;;;;;5054861;28;20063;-65
2023/07/12 01:07:40;;;;;;;3.30;2.10;;;19.70;99.90;;;;;;5037844;28;20060;-65
2023/07/12 01:10:08;;;;;;;4.53;2.55;;;19.60;99.90;;;;;;5037410;28;20045;-66
2023/07/12 01:12:35;;;;;;;3.15;2.10;;;19.60;99.90;;;;;;5065039;28;20040;-64
2023/07/12 01:15:01;;;;;;;4.32;2.50;;;19.50;99.90;;;;;;5057163;28;20095;-66
2023/07/12 01:17:28;;;;;;;4.57;2.20;;;19.50;99.90;;;;;;5074724;28;20435;-66
2023/07/12 01:19:54;;;;;;;4.30;2.50;;;19.60;99.90;;;;;;5057095;28;20049;-65
2023/07/12 01:22:21;;;;;;;5.70;2.60;;;19.40;99.90;;;;;;5057030;28;20075;-65
2023/07/12 01:24:47;;;;;;;4.38;2.60;;;19.40;99.90;;;;;;5074962;28;20048;-65
2023/07/12 01:27:23;;;;;;;3.50;2.40;;;19.40;99.90;;;;;;5074751;28;20048;-64
2023/07/12 01:29:50;;;;;;;4.10;2.70;;;19.40;99.90;;;;;;5040598;28;20052;-65
2023/07/12 01:32:17;;;;;;;3.75;2.70;;;19.30;99.90;;;;;;5056754;28;20388;-65
2023/07/12 01:34:43;;;;;;;4.50;2.70;;;19.40;99.90;;;;;;5074268;28;20053;-65
2023/07/12 01:37:09;;;;;;;4.78;2.70;;;19.20;99.90;;;;;;5074041;28;20056;-65
2023/07/12 01:39:36;;;;;;;4.03;2.60;;;19.10;99.90;;;;;;5057000;28;20467;-65
2023/07/12 01:42:02;;;;;;;4.47;3.10;;;19.10;99.90;;;;;;5074357;28;20056;-64
2023/07/12 01:44:28;;;;;;;4.60;2.70;;;19.00;99.90;;;;;;5074435;28;20449;-65
2023/07/12 01:46:55;;;;;;;6.50;3.03;;;19.00;99.90;;;;;;5056222;28;20049;-65
2023/07/12 01:49:22;;;;;;;5.82;3.22;;;19.00;99.90;;;;;;5040306;28;20049;-65
2023/07/12 01:51:55;;;;;;;4.93;3.30;;;18.90;99.90;;;;;;5073690;28;20453;-65
2023/07/12 01:54:21;;;;;;;5.55;3.13;;;18.90;99.90;;;;;;5040171;28;20060;-65
2023/07/12 01:56:54;;;;;;;5.03;3.25;;;18.90;99.90;;;;;;5055979;28;20101;-66
2023/07/12 01:59:20;;;;;;;5.50;3.38;;;19.00;99.90;;;;;;5056746;28;20044;-65
2023/07/12 02:01:47;;;;;;;5.82;3.75;;;19.00;99.90;;;;;;5072410;28;20040;-65
2023/07/12 02:04:13;;;;;;;6.15;3.50;;;18.80;99.90;;;;;;5040042;28;20056;-65
2023/07/12 02:06:39;;;;;;;5.13;3.83;;;18.90;99.90;;;;;;5073745;28;20048;-66
2023/07/12 02:09:05;;;;;;;6.28;3.45;;;18.90;99.90;;;;;;5056720;28;20465;-65
2023/07/12 02:11:31;;;;;;;5.53;3.75;;;18.80;99.90;;;;;;5056021;28;20098;-66
2023/07/12 02:13:59;;;;;;;6.50;3.55;;;18.80;99.90;;;;;;5074009;28;20048;-66
2023/07/12 02:16:25;;;;;;;5.18;3.28;;;18.80;99.90;;;;;;5073466;28;20427;-65
2023/07/12 02:18:51;;;;;;;7.72;3.47;;;18.80;99.90;;;;;;5039768;28;20129;-64
2023/07/12 02:21:17;;;;;;;7.20;3.40;;;18.70;99.90;;;;;;5073744;28;20048;-66
2023/07/12 02:23:44;;;;;;;7.40;3.42;;;18.80;99.90;;;;;;5054708;28;20060;-66
2023/07/12 02:26:10;;;;;;;5.28;3.15;;;18.70;99.90;;;;;;5073493;28;20049;-65
2023/07/12 02:28:37;;;;;;;8.38;3.28;;;18.70;99.90;;;;;;5073572;28;20118;-65
2023/07/12 02:31:17;;;;;;;10.80;3.33;;;18.80;99.90;;;;;;5073658;28;20361;-65
2023/07/12 02:33:43;;;;;;;7.85;3.20;;;18.60;99.90;;;;;;5073079;28;20648;-65
2023/07/12 02:36:09;;;;;;;8.70;3.33;;;18.40;99.90;;;;;;5086451;28;20460;-66
2023/07/12 02:38:35;;;;;;;6.07;2.88;;;18.40;99.90;;;;;;5093970;28;20067;-66
2023/07/12 02:41:02;;;;;;;9.25;3.60;;;18.30;99.90;;;;;;5093703;28;20044;-65
2023/07/12 02:43:29;;;;;;;7.47;3.42;;;18.10;99.90;;;;;;5093312;28;20039;-65
2023/07/12 02:45:55;;;;;;;8.80;3.40;;;18.10;99.90;;;;;;5093461;28;20059;-65
2023/07/12 02:48:53;;;;;;;9.13;3.28;;;18.00;99.90;;;;;;5075349;28;20048;-66
2023/07/12 02:51:20;;;;;;;7.53;4.10;;;18.00;99.90;;;;;;5093567;28;20101;-66
2023/07/12 02:53:46;;;;;;;10.57;4.40;;;18.00;99.90;;;;;;5092787;28;20052;-64
2023/07/12 02:56:14;;;;;;;5.18;3.78;;;18.00;99.90;;;;;;5075106;28;20067;-65
2023/07/12 02:58:40;;;;;;;7.78;3.40;;;17.90;99.90;;;;;;5093409;28;20365;-64
2023/07/12 03:01:06;;;;;;;7.70;3.40;;;17.90;99.90;;;;;;5093141;28;20056;-65
2023/07/12 03:03:33;;;;;;;7.00;3.80;;;17.90;99.90;;;;;;5074901;28;20040;-65
2023/07/12 03:06:11;;;;;;;7.97;3.53;;;18.00;99.90;;;;;;5092745;28;20511;-66
2023/07/12 03:08:38;;;;;;;10.07;3.72;;;17.90;99.90;;;;;;5058602;28;20086;-65
2023/07/12 03:11:06;;;;;;;8.88;4.13;;;18.00;99.90;;;;;;5075470;28;20063;-66
2023/07/12 03:13:33;;;;;;;8.48;3.53;;;17.90;99.90;;;;;;5074883;28;20063;-66
2023/07/12 03:16:04;;;;;;;7.40;3.30;;;18.00;99.90;;;;;;5092862;28;20067;-66
2023/07/12 03:18:32;;;;;;;8.27;3.47;;;17.90;99.90;;;;;;5093063;28;20051;-65
2023/07/12 03:21:03;;;;;;;13.13;3.80;;;17.90;99.90;;;;;;5074656;28;20393;-66
2023/07/12 03:23:31;;;;;;;8.88;3.75;;;17.80;99.90;;;;;;5074424;28;20048;-66
2023/07/12 03:25:57;;;;;;;8.15;3.42;;;17.80;99.90;;;;;;5074825;28;20468;-65
2023/07/12 03:28:24;;;;;;;9.85;3.80;;;17.80;99.90;;;;;;5074959;28;20507;-65
2023/07/12 03:30:59;;;;;;;9.98;3.90;;;17.80;99.90;;;;;;5092831;28;20464;-66
2023/07/12 03:33:25;;;;;;;8.68;3.30;;;17.80;99.90;;;;;;5074032;28;20418;-66
2023/07/12 03:35:52;;;;;;;8.30;3.92;;;17.90;99.90;;;;;;5073890;28;20114;-65
2023/07/12 03:38:18;;;;;;;10.60;4.05;;;17.80;99.90;;;;;;5074529;28;20051;-66
2023/07/12 03:40:45;;;;;;;8.40;3.88;;;17.80;99.90;;;;;;5074748;28;20051;-65
2023/07/12 03:43:11;;;;;;;8.05;4.30;;;17.80;99.90;;;;;;5074270;28;20097;-66
2023/07/12 03:45:37;;;;;;;8.95;3.38;;;17.90;99.90;;;;;;5074216;28;20102;-65
2023/07/12 03:48:04;;;;;;;7.63;3.40;;;17.80;99.90;;;;;;5074482;28;20048;-65
2023/07/12 03:50:30;;;;;;;6.85;3.78;;;17.80;99.90;;;;;;5074331;28;20063;-66
2023/07/12 03:52:56;;;;;;;9.48;4.05;;;17.80;99.90;;;;;;5073921;28;20052;-66
2023/07/12 03:55:22;;;;;;;8.77;3.60;;;17.80;99.90;;;;;;5057528;28;20113;-66
2023/07/12 03:57:49;;;;;;;8.65;4.15;;;17.70;99.90;;;;;;5092362;28;20044;-66
2023/07/12 04:00:15;;;;;;;8.73;3.95;;;17.70;99.90;;;;;;5074560;28;20113;-66
2023/07/12 04:02:42;;;;;;;9.13;4.03;;;17.70;99.90;;;;;;5057601;28;20062;-66
2023/07/12 04:05:09;;;;;;;8.55;3.97;;;17.90;99.90;;;;;;5073862;28;20396;-66
2023/07/12 04:07:35;;;;;;;9.20;4.47;;;17.80;99.90;;;;;;5074501;28;20383;-66
2023/07/12 04:10:01;;;;;;;10.18;4.07;;;17.80;99.90;;;;;;5075088;28;20121;-66
2023/07/12 04:12:27;;;;;;;8.50;4.00;;;17.80;99.90;;;;;;5073843;28;20090;-65
2023/07/12 04:14:54;;;;;;;7.40;3.70;;;17.80;99.90;;;;;;5074058;28;20447;-66
2023/07/12 04:17:21;;;;;;;8.30;4.85;;;17.80;99.90;;;;;;5057275;28;20494;-66
2023/07/12 04:19:47;;;;;;;10.50;4.30;;;17.80;99.90;;;;;;5091912;28;20044;-66
2023/07/12 04:22:13;;;;;;;8.10;4.30;;;17.80;99.90;;;;;;5073756;28;20044;-65
2023/07/12 04:24:40;;;;;;;8.57;5.00;;;17.70;99.90;;;;;;5073603;28;20044;-66
2023/07/12 04:27:06;;;;;;;9.25;4.38;;;17.80;99.90;;;;;;5092359;28;20079;-66
2023/07/12 04:29:33;;;;;;;8.30;4.88;;;17.70;99.90;;;;;;5073897;28;20051;-66
2023/07/12 04:31:59;;;;;;;9.65;4.47;;;17.70;99.90;;;;;;5073806;28;20052;-66
2023/07/12 04:34:25;;;;;;;9.95;4.63;;;17.70;99.90;;;;;;5073744;28;20079;-66
2023/07/12 04:36:53;;;;;;;7.22;4.45;;;17.70;99.90;;;;;;5073435;28;20048;-66
2023/07/12 04:39:20;;;;;;;10.82;4.95;;;17.80;99.90;;;;;;5057099;28;20052;-66
2023/07/12 04:41:46;;;;;;;10.88;5.13;;;17.70;99.90;;;;;;5091259;28;20044;-66
2023/07/12 04:44:12;;;;;;;9.43;4.03;;;17.70;99.90;;;;;;5073543;28;20052;-66
2023/07/12 04:46:38;;;;;;;8.95;4.18;;;17.70;99.90;;;;;;5091480;28;20054;-66
2023/07/12 04:49:05;;;;;;;10.30;4.38;;;17.80;99.90;;;;;;5073786;28;20052;-66
2023/07/12 04:51:31;;;;;;;9.43;4.70;;;17.70;99.90;;;;;;5073679;28;20525;-65
2023/07/12 04:53:58;;;;;;;8.77;4.85;;;17.70;99.90;;;;;;5073346;28;20044;-65
2023/07/12 04:56:24;;;;;;;8.15;4.95;;;17.80;99.90;;;;;;5073500;28;20052;-66
2023/07/12 04:58:57;;;;;;;10.45;4.80;;;17.80;99.90;;;;;;5073455;28;20044;-66
2023/07/12 05:01:24;;;;;;;9.38;4.95;;;18.00;99.90;;;;;;5073585;28;20055;-66
2023/07/12 05:03:50;;;;;;;11.70;5.95;;;18.10;99.90;;;;;;5091176;28;20044;-66
2023/07/12 05:06:16;;;;;;;10.90;5.43;;;18.10;99.90;;;;;;5072521;28;20040;-66
2023/07/12 05:08:43;;;;;;;9.50;5.07;;;18.20;99.90;;;;;;5073767;28;20056;-66
2023/07/12 05:11:09;;;;;;;10.00;4.93;;;18.00;99.90;;;;;;5061954;28;20048;-66
2023/07/12 05:13:36;;;;;;;12.25;5.45;;;18.10;99.90;;;;;;5053095;28;20048;-66
2023/07/12 05:16:02;;;;;;;7.40;5.00;;;18.00;99.90;;;;;;5064108;28;20056;-66
2023/07/12 05:18:29;;;;;;;9.02;4.78;;;18.00;99.90;;;;;;5046714;28;20067;-66
2023/07/12 05:20:57;;;;;;;11.02;5.13;;;18.00;99.90;;;;;;5060089;28;20036;-65
2023/07/12 05:23:36;;;;;;;13.63;4.82;;;18.00;99.90;;;;;;5064138;28;20060;-66
2023/07/12 05:26:06;;;;;;;12.57;5.28;;;18.10;99.90;;;;;;5075006;28;20056;-65
2023/07/12 05:28:32;;;;;;;8.82;4.95;;;18.40;99.90;;;;;;5074338;28;20048;-66
2023/07/12 05:31:05;;;;;;;12.90;5.07;;;18.60;99.90;;;;;;5056786;28;20125;-65
2023/07/12 05:33:31;;;;;;;9.02;4.90;;;18.70;99.90;;;;;;5072371;28;20044;-63
2023/07/12 05:35:57;;;;;;;9.27;5.80;;;18.70;99.90;;;;;;5093922;28;20051;-65
2023/07/12 05:38:24;;;;;;;9.18;5.47;;;18.70;99.90;;;;;;5076964;28;20388;-65
2023/07/12 05:40:50;;;;;;;12.85;6.10;;;18.60;99.90;;;;;;5094208;28;20056;-65
2023/07/12 05:43:22;;;;;;;11.43;6.07;;;18.50;99.90;;;;;;5084913;28;20036;-64
2023/07/12 05:45:51;;;;;;;10.55;5.93;;;18.40;99.90;;;;;;5067256;28;20048;-65
2023/07/12 05:48:18;;;;;;;11.75;6.85;;;18.50;99.90;;;;;;5086824;28;20105;-64
2023/07/12 05:50:51;;;;;;;13.85;6.97;;;18.10;99.90;;;;;;5062631;28;20502;-64
2023/07/12 05:53:19;;;;;;;11.05;7.07;;;18.20;99.90;;;;;;5084079;28;20044;-65
2023/07/12 05:55:45;;;;;;;9.52;7.50;;;18.20;99.90;;;;;;5076138;28;20295;-66
2023/07/12 05:58:13;;;;;;;12.75;7.75;;;18.10;99.90;;;;;;5076678;28;20050;-64
2023/07/12 06:00:39;;;;;;;11.55;7.85;;;18.00;99.90;;;;;;5093965;28;20048;-65
2023/07/12 06:03:06;;;;;;;14.30;7.55;;;18.10;99.90;;;;;;5094176;28;20044;-65
2023/07/12 06:05:32;;;;;;;11.57;8.55;;;18.30;99.90;;;;;;5099544;28;20054;-65
2023/07/12 06:07:59;;;;;;;13.55;8.30;;;18.90;99.90;;;;;;5092348;28;20053;-65
2023/07/12 06:10:25;;;;;;;14.27;8.55;;;19.70;99.90;;;;;;5093474;28;20040;-65
2023/07/12 06:12:52;;;;;;;10.80;8.48;;;19.80;99.90;;;;;;5098218;28;20039;-64
2023/07/12 06:15:18;;;;;;;14.13;8.10;;;20.20;99.90;;;;;;5101094;28;20067;-66
2023/07/12 06:17:44;;;;;;;10.70;7.68;;;20.90;99.90;;;;;;5087721;28;20044;-63
2023/07/12 06:20:11;;;;;;;9.88;7.20;;;21.60;99.90;;;;;;5082472;28;20051;-64
2023/07/12 06:22:37;;;;;;;13.75;7.90;;;22.00;99.90;;;;;;5086825;28;20075;-64
2023/07/12 06:25:05;;;;;;;12.98;7.35;;;21.50;99.90;;;;;;5082946;28;20401;-65
2023/07/12 06:27:31;;;;;;;11.35;6.78;;;21.10;99.90;;;;;;5084366;28;20044;-64
2023/07/12 06:29:58;;;;;;;13.55;8.50;;;20.90;99.90;;;;;;5087261;28;20105;-64
2023/07/12 06:32:24;;;;;;;11.13;6.93;;;20.80;99.90;;;;;;5066440;28;20044;-64
2023/07/12 06:34:50;;;;;;;12.10;6.78;;;20.60;99.90;;;;;;5086378;28;20110;-64
2023/07/12 06:37:17;;;;;;;10.80;7.15;;;20.40;99.90;;;;;;5082185;28;20099;-65
2023/07/12 06:39:43;;;;;;;13.60;7.03;;;20.50;99.90;;;;;;5062143;28;20056;-64
2023/07/12 06:42:09;;;;;;;12.02;6.65;;;20.40;99.90;;;;;;5092960;28;20482;-64
2023/07/12 06:44:36;;;;;;;10.55;6.07;;;20.20;99.90;;;;;;5093665;28;20044;-64
2023/07/12 06:47:02;;;;;;;11.13;5.97;;;19.90;99.90;;;;;;5092769;28;20368;-64
2023/07/12 06:49:29;;;;;;;9.57;4.97;;;19.80;99.90;;;;;;5075583;28;20384;-64
2023/07/12 06:51:57;;;;;;;8.45;4.65;;;19.60;99.90;;;;;;5094164;28;20071;-64
2023/07/12 06:54:23;;;;;;;9.10;5.80;;;19.50;99.90;;;;;;5094284;28;20384;-64
2023/07/12 06:56:50;;;;;;;12.25;6.13;;;19.50;99.90;;;;;;5076268;28;20105;-64
2023/07/12 06:59:16;;;;;;;10.15;6.05;;;19.40;99.90;;;;;;5094567;28;20044;-63
2023/07/12 07:01:42;;;;;;;9.18;6.03;;;19.40;99.90;;;;;;5094199;28;20044;-65
2023/07/12 07:04:08;;;;;;;10.68;6.45;;;19.30;99.90;;;;;;5094117;28;20050;-64
2023/07/12 07:06:35;;;;;;;11.77;6.30;;;19.40;99.90;;;;;;5076545;28;20044;-64
2023/07/12 07:09:03;;;;;;;9.60;5.97;;;19.60;99.90;;;;;;5076307;28;20051;-63
2023/07/12 07:11:29;;;;;;;8.48;5.72;;;19.80;99.90;;;;;;5094565;28;20056;-64
2023/07/12 07:13:56;;;;;;;11.48;6.35;;;19.90;99.90;;;;;;5076263;28;20044;-63
2023/07/12 07:16:24;;;;;;;6.28;5.63;;;20.00;99.90;;;;;;5094156;28;20113;-64
2023/07/12 07:18:53;;;;;;;10.65;6.72;;;20.10;99.90;;;;;;5059030;28;20044;-64
2023/07/12 07:21:20;;;;;;;10.95;7.00;;;20.00;99.90;;;;;;5093959;28;20054;-64
2023/07/12 07:23:51;;;;;;;12.02;6.43;;;19.90;99.90;;;;;;5093479;28;20404;-64
2023/07/12 07:26:18;;;;;;;7.53;6.80;;;19.80;99.90;;;;;;5093291;28;20376;-63
2023/07/12 07:28:44;;;;;;;10.38;7.25;;;20.10;99.90;;;;;;5093321;28;20056;-63
2023/07/12 07:31:11;;;;;;;13.25;7.00;;;20.30;99.90;;;;;;5093777;28;20055;-63
2023/07/12 07:33:39;;;;;;;12.40;7.40;;;20.60;99.90;;;;;;5061336;28;20102;-64
2023/07/12 07:36:08;;;;;;;12.10;6.88;;;20.90;99.90;;;;;;5046681;28;20083;-64
2023/07/12 07:38:36;;;;;;;10.35;5.95;;;20.90;99.90;;;;;;5072637;28;20422;-65
2023/07/12 07:41:09;;;;;;;10.23;7.13;;;20.90;99.90;;;;;;5073224;28;20049;-64
2023/07/12 07:43:36;;;;;;;12.88;7.10;;;20.80;99.90;;;;;;5088654;28;20051;-63
2023/07/12 07:46:07;;;;;;;8.80;6.60;;;20.90;99.90;;;;;;5059117;28;20102;-64
2023/07/12 07:48:33;;;;;;;9.82;6.30;;;21.20;99.90;;;;;;5066150;28;20048;-63
2023/07/12 07:51:00;;;;;;;10.40;5.65;;;21.40;99.90;;;;;;5079685;28;20056;-63
2023/07/12 07:53:26;;;;;;;10.73;6.40;;;21.60;99.90;;;;;;5080865;28;20049;-64
2023/07/12 07:55:52;;;;;;;8.35;6.00;;;21.60;99.90;;;;;;5075587;28;20054;-65
2023/07/12 07:58:20;;;;;;;10.55;6.28;;;21.80;99.90;;;;;;5073230;28;20303;-64
2023/07/12 08:00:47;;;;;;;10.52;6.25;;;21.70;99.90;;;;;;5081365;28;20044;-64
2023/07/12 08:03:13;;;;;;;11.68;6.63;;;21.80;99.90;;;;;;5093416;28;20044;-64
2023/07/12 08:05:41;;;;;;;11.30;6.72;;;21.90;99.90;;;;;;5075574;28;20059;-65
2023/07/12 08:08:08;;;;;;;14.32;6.53;;;21.70;99.90;;;;;;5093436;28;20097;-64
2023/07/12 08:10:35;;;;;;;11.35;6.15;;;21.70;99.90;;;;;;5071752;28;20081;-64
2023/07/12 08:13:01;;;;;;;10.23;5.88;;;21.50;99.90;;;;;;5066650;28;20109;-64
2023/07/12 08:15:28;;;;;;;13.38;6.40;;;21.50;99.90;;;;;;5093417;28;20055;-64
2023/07/12 08:17:54;;;;;;;9.85;5.80;;;21.40;99.90;;;;;;5092804;28;20060;-65
2023/07/12 08:20:22;;;;;;;8.63;6.15;;;21.20;99.90;;;;;;5074911;28;20048;-64
2023/07/12 08:22:49;;;;;;;11.10;5.72;;;21.00;99.90;;;;;;5075140;28;20395;-64
2023/07/12 08:25:17;;;;;;;13.02;5.55;;;20.80;99.90;;;;;;5093484;28;20048;-64
2023/07/12 08:27:43;;;;;;;7.47;5.43;;;20.60;99.90;;;;;;5093293;28;20074;-64
2023/07/12 08:30:11;;;;;;;9.15;5.97;;;20.40;99.90;;;;;;5058365;28;20452;-64
2023/07/12 08:32:37;;;;;;;10.60;6.35;;;20.30;99.90;;;;;;5086366;28;20040;-64
2023/07/12 08:35:03;;;;;;;12.55;6.60;;;20.20;99.90;;;;;;5092505;28;20060;-64
2023/07/12 08:37:31;;;;;;;9.75;6.05;;;20.00;99.90;;;;;;5075096;28;20121;-63
2023/07/12 08:39:57;;;;;;;12.63;5.93;;;19.80;99.90;;;;;;5092317;28;20078;-64
2023/07/12 08:42:28;;;;;;;11.82;5.78;;;19.60;99.90;;;;;;5074798;28;20043;-64
2023/07/12 08:44:58;;;;;;;12.77;6.53;;;19.50;99.90;;;;;;5083269;28;20048;-64
2023/07/12 08:47:31;;;;;;;12.30;6.88;;;19.60;99.90;;;;;;5081226;28;20102;-64
2023/07/12 08:49:58;;;;;;;9.38;5.97;;;19.60;99.90;;;;;;5058376;28;20376;-63
2023/07/12 08:52:33;;;;;;;11.38;5.45;;;19.40;99.90;;;;;;5063715;28;20562;-64
2023/07/12 08:55:01;;;;;;;11.95;6.80;;;19.40;99.90;;;;;;5078580;28;20456;-63
2023/07/12 08:57:29;;;;;;;10.45;5.60;;;19.50;99.90;;;;;;5078748;28;20047;-63
2023/07/12 09:00:17;;;;;;;12.35;5.57;;;19.80;99.90;;;;;;5096740;28;20092;-63
2023/07/12 09:02:43;;;;;;;13.55;6.47;;;20.00;99.90;;;;;;5079030;28;20464;-63
2023/07/12 09:05:22;;;;;;;9.18;4.85;;;20.40;99.90;;;;;;5062348;28;20388;-64
2023/07/12 09:08:00;;;;;;;12.15;5.80;;;20.60;99.90;;;;;;5079681;28;20392;-64
2023/07/12 09:10:40;;;;;;;13.85;5.22;;;20.90;99.90;;;;;;5096547;28;20047;-64
2023/07/12 09:13:12;;;;;;;7.82;4.70;;;20.90;99.90;;;;;;5078186;28;20048;-64
2023/07/12 09:15:45;;;;;;;8.95;4.45;;;21.00;99.90;;;;;;5096749;28;20059;-64
2023/07/12 09:18:37;;;;;;;9.02;4.47;;;20.80;99.90;;;;;;5068310;28;20114;-64
2023/07/12 09:21:19;;;;;;;12.10;4.88;;;20.70;99.90;;;;;;5077897;28;20052;-64
2023/07/12 09:23:46;;;;;;;13.85;4.80;;;20.60;99.90;;;;;;5091821;28;20056;-63
2023/07/12 09:26:25;;;;;;;12.40;4.88;;;20.50;99.90;;;;;;5096167;28;20040;-63
2023/07/12 09:28:56;;;;;;;9.55;4.05;;;20.40;99.90;;;;;;5096094;28;20113;-64
2023/07/12 09:31:28;;;;;;;;;;;20.50;99.90;;;;;;5078703;28;20059;-63
2023/07/12 09:33:59;;;;;;;9.73;4.32;;;20.60;99.90;;;;;;5095686;28;19993;-64
2023/07/12 09:36:26;;;;;;;10.68;4.57;;;20.60;99.90;;;;;;5078381;28;20122;-63
2023/07/12 09:39:00;;;;;;;11.43;5.03;;;20.70;99.90;;;;;;5095350;28;20048;-65
2023/07/12 09:41:27;;;;;;;9.35;4.88;;;21.00;99.90;;;;;;5095813;28;20077;-64
2023/07/12 09:44:00;;;;;;;9.32;4.80;;;21.20;99.90;;;;;;5095884;28;20052;-65
2023/07/12 09:46:40;;;;;;;10.52;4.40;;;21.30;99.90;;;;;;5077636;28;20055;-64
2023/07/12 09:49:21;;;;;;;8.15;3.70;;;21.40;99.90;;;;;;5094911;28;20427;-64
2023/07/12 09:52:12;;;;;;;5.18;2.58;;;21.30;99.90;;;;;;5095487;28;20044;-63
2023/07/12 09:55:12;;;;;;;8.93;4.75;;;21.20;99.90;;;;;;5075384;28;20182;-63
2023/07/12 09:58:16;;;;;;;10.02;3.55;;;21.10;99.90;;;;;;5075041;28;20052;-64
2023/07/12 10:01:00;;;;;;;8.77;3.63;;;21.30;99.90;;;;;;5074556;28;20318;-64
2023/07/12 10:03:41;;;;;;;7.60;3.45;;;21.30;99.90;;;;;;5082120;28;20048;-64
2023/07/12 10:06:36;;;;;;;7.35;3.40;;;21.20;99.90;;;;;;5095163;28;20045;-65
2023/07/12 10:09:20;;;;;;;7.40;3.30;;;21.30;99.90;;;;;;5094800;28;20460;-64
2023/07/12 10:11:57;;;;;;;6.65;3.42;;;21.50;99.90;;;;;;5085258;28;20059;-65
2023/07/12 10:14:35;;;;;;;8.40;2.47;;;21.70;99.90;;;;;;5083165;28;20044;-64
2023/07/12 10:17:01;;;;;;;5.90;2.88;;;21.80;99.90;;;;;;5073000;28;20052;-63
2023/07/12 10:19:36;;;;;;;4.65;2.45;;;21.80;99.90;;;;;;5063736;28;20056;-64
2023/07/12 10:22:11;;;;;;;5.63;2.22;;;21.90;99.90;;;;;;5057619;28;20048;-64
2023/07/12 10:24:43;;;;;;;5.45;2.20;;;22.10;99.90;;;;;;5077328;28;20048;-64
2023/07/12 10:27:17;;;;;;;4.63;2.28;;;22.00;99.90;;;;;;5073450;28;20479;-64
2023/07/12 10:29:50;;;;;;;9.45;3.33;;;22.10;99.90;;;;;;5067997;28;20048;-65
2023/07/12 10:32:56;;;;;;;4.95;2.55;;;22.10;99.90;;;;;;5070091;28;20043;-63
2023/07/12 10:35:36;;;;;;;6.35;2.47;;;22.40;99.90;;;;;;4970068;28;20542;-63
2023/07/12 10:38:13;;;;;;;6.50;2.95;;;22.40;99.90;;;;;;5048948;28;20048;-63
2023/07/12 10:40:55;;;;;;;5.35;2.83;;;22.40;99.90;;;;;;5047160;28;20041;-64
2023/07/12 10:43:38;;;;;;;6.35;3.13;;;22.50;99.90;;;;;;5071969;28;20114;-63
2023/07/12 10:46:10;;;;;;;6.28;2.50;;;22.40;99.90;;;;;;5074602;28;20102;-64
2023/07/12 10:48:40;;;;;;;7.63;2.83;;;22.60;99.90;;;;;;5071824;28;20335;-64
2023/07/12 10:51:33;;;;;;;5.78;2.80;;;22.60;99.90;;;;;;5064076;28;20041;-63
2023/07/12 10:53:59;;;;;;;5.88;2.70;;;22.60;99.90;;;;;;5067322;28;20052;-64
2023/07/12 10:56:50;;;;;;;6.47;2.80;;;22.50;99.90;;;;;;5073670;28;20403;-63
2023/07/12 10:59:30;;;;;;;6.88;3.42;;;22.60;99.90;;;;;;5037425;28;20106;-63
2023/07/12 11:02:19;;;;;;;6.93;3.05;;;22.50;99.90;;;;;;5053405;28;20045;-64
2023/07/12 11:04:48;;;;;;;4.45;2.58;;;22.70;99.90;;;;;;5035968;28;20118;-63
2023/07/12 11:07:14;;;;;;;5.95;2.50;;;22.70;99.90;;;;;;5063775;28;20049;-62
2023/07/12 11:09:44;;;;;;;5.18;2.83;;;22.80;99.90;;;;;;5071960;28;20048;-63
2023/07/12 11:12:13;;;;;;;6.75;2.45;;;22.90;99.90;;;;;;5069154;28;20473;-64
2023/07/12 11:14:40;;;;;;;7.82;3.15;;;23.00;99.90;;;;;;5073546;28;20044;-63
2023/07/12 11:17:06;;;;;;;4.80;2.90;;;22.90;99.90;;;;;;5065982;28;20045;-63
2023/07/12 11:19:38;;;;;;;6.95;2.75;;;22.90;99.90;;;;;;5061025;28;20076;-62
2023/07/12 11:22:21;;;;;;;6.72;2.83;;;22.90;99.90;;;;;;5067560;28;20040;-64
2023/07/12 11:24:52;;;;;;;5.30;2.72;;;23.10;99.90;;;;;;5073918;28;20048;-64
2023/07/12 11:27:29;;;;;;;;;;;23.10;99.90;;;;;;5074208;28;20097;-64
2023/07/12 11:30:14;;;;;;;6.53;3.25;;;23.20;99.90;;;;;;5073235;28;19920;-63
2023/07/12 11:32:41;;;;;;;4.93;2.00;;;23.20;99.90;;;;;;5073412;28;20044;-64
2023/07/12 11:35:19;;;;;;;7.10;2.30;;;23.10;99.90;;;;;;5077537;28;20063;-63
2023/07/12 11:37:48;;;;;;;5.03;2.35;;;23.00;99.90;;;;;;5092276;28;20379;-63
2023/07/12 11:40:24;;;;;;;6.32;2.40;;;22.80;99.90;;;;;;5092294;28;20506;-63
2023/07/12 11:42:51;;;;;;;7.05;2.40;;;22.80;99.90;;;;;;5085242;28;20365;-63
2023/07/12 11:45:22;;;;;;;5.22;2.60;;;22.90;99.90;;;;;;5072455;28;20041;-64
2023/07/12 11:47:53;;;;;;;6.50;2.58;;;23.00;99.90;;;;;;5072048;28;20049;-64
2023/07/12 11:50:22;;;;;;;7.13;3.25;;;23.10;99.90;;;;;;5072332;28;20048;-63
2023/07/12 11:52:50;;;;;;;6.82;3.08;;;23.10;99.90;;;;;;5078001;28;20044;-63
2023/07/12 11:55:20;;;;;;;6.30;3.20;;;23.10;99.90;;;;;;5092453;28;20088;-63
2023/07/12 11:57:48;;;;;;;6.90;2.75;;;23.10;99.90;;;;;;5092367;28;20357;-63
2023/07/12 12:00:22;;;;;;;5.75;2.40;;;23.20;99.90;;;;;;5092093;28;20101;-64
2023/07/12 12:02:50;;;;;;;5.63;2.20;;;23.40;99.90;;;;;;5085421;28;20461;-64
2023/07/12 12:05:24;;;;;;;4.50;2.20;;;23.30;99.90;;;;;;5072390;28;20419;-63
2023/07/12 12:07:54;;;;;;;4.13;2.20;;;23.40;99.90;;;;;;5072295;28;20376;-62
2023/07/12 12:10:29;;;;;;;3.35;1.90;;;23.40;99.90;;;;;;5072203;28;20114;-63
2023/07/12 12:12:55;;;;;;;6.03;2.10;;;23.40;99.90;;;;;;5071721;28;20445;-63
2023/07/12 12:15:30;;;;;;;4.28;2.00;;;23.30;99.90;;;;;;5072338;28;20353;-62
2023/07/12 12:18:04;;;;;;;3.70;2.33;;;23.40;99.90;;;;;;5054417;28;20467;-63
2023/07/12 12:20:30;;;;;;;8.32;2.33;;;23.60;99.90;;;;;;5064733;28;20056;-63
2023/07/12 12:23:11;;;;;;;6.90;2.30;;;23.70;99.90;;;;;;5058701;28;20045;-63
2023/07/12 12:25:46;;;;;;;6.88;2.00;;;23.40;99.90;;;;;;5071668;28;20433;-63
2023/07/12 12:28:23;;;;;;;3.78;1.83;;;23.40;99.90;;;;;;5071315;28;20075;-63
2023/07/12 12:31:00;;;;;;;4.43;2.30;;;23.40;99.90;;;;;;5071758;28;20048;-63
2023/07/12 12:33:28;;;;;;;4.65;2.00;;;23.50;99.90;;;;;;5071832;28;20053;-63
2023/07/12 12:36:04;;;;;;;3.67;1.98;;;23.30;99.90;;;;;;5035140;28;1047279;-63
2023/07/12 12:38:35;;;;;;;4.95;1.70;;;23.50;99.90;;;;;;5072182;28;20428;-65
2023/07/12 12:41:16;;;;;;;4.78;2.00;;;23.40;99.90;;;;;;5072269;28;20053;-63
2023/07/12 12:44:05;;;;;;;3.50;1.83;;;23.40;99.50;;;;;;5072193;28;20048;-65
2023/07/12 12:46:31;;;;;;;3.90;2.00;;;23.50;99.80;;;;;;5072750;28;20044;-64
2023/07/12 12:48:58;;;;;;;4.20;1.90;;;23.60;99.70;;;;;;5070456;28;20083;-63
2023/07/12 12:51:24;;;;;;;3.35;2.45;;;23.60;99.70;;;;;;5072527;28;20476;-64
2023/07/12 12:53:51;;;;;;;3.63;1.90;;;23.50;99.60;;;;;;5071649;28;20461;-63
2023/07/12 12:56:17;;;;;;;5.63;2.03;;;23.60;99.80;;;;;;5072198;28;20469;-63
2023/07/12 12:58:43;;;;;;;4.80;2.08;;;23.80;99.90;;;;;;5072491;28;20045;-63
2023/07/12 13:01:14;;;;;;;6.00;2.08;;;23.70;99.40;;;;;;5072455;28;20048;-63